Rain From: 04-06-2020 20:30 Until: 06-06-2020 03:00 warning for: Rain Level: Yellow info button
dansk:
Kategori 1 varsel: DMI forventer mellem 25 og 35 mm regn på 6 timer. Der er også risiko for lokale skybrud med mere end 15 mm på 30 min.

Vær opmærksom på, at vand kan samles i lavtliggende områder f.eks. kældre, vejbaner og viadukter. Luk vinduer og døre. Tilpas kørselshastigheden til sigtbarhedsforholdene.

english:
Catergory 1: Continuous rain and flash flood. 25 to 35 mm rain in 6 hours.

Heavy rainfall causes a danger of flash floods, flooding of low-lying areas, flooding of basements, water on roads and viaducts (aquaplaning), and reduced visibility. 


Webcam  Webcam


Lyn radar more information blitzortung!


Advarsel for Regn more information rain snow radar



Lokal METAR Rapport

   
EHVK - Volkel Rnlafb, Netherlands
Afstand fra station: SV 18 km
Opdateret: 05-06-2020 01:55
Klart  
Klart  
   Vind: VSV 2.6 m/s
Vind: VSV 2.6 m/s
Temperatur: 7°C
Kuldeindeks: 5°C
Dugpunkt: 7°C
Luftfugtighed: 100%
Barometer: 998 hPa
Skyet: Klart
Sigtbarhed: mere end 10 km
Sky detaljer: Klart
EHVK 042355Z AUTO 24005KT 9999 NCD 07/07 Q0998 BLU
EDLV - Niederrhein, Germany
Afstand fra station: SØ 25 km
Opdateret: 03-06-2020 19:50
Ikke Aktuelt
Klart  
Klart  
   Vind: NV 3.1 m/s
Vind: NV 3.1 m/s
Temperatur: 21°C
Dugpunkt: 9°C
Luftfugtighed: 46%
Barometer: 1001 hPa
Sigtbarhed: mere end 10 km
Sky detaljer: Klart
EDLV 031750Z 31006KT 280V340 CAVOK 21/09 Q1001
EHDL - Deelen Rnlafb, Netherlands
Afstand fra station: N 35 km
Opdateret: 05-06-2020 01:55
Light, mest skyet  
Light, mest skyet  
   Vind: VSV 2.6 m/s
Vind: VSV 2.6 m/s
Temperatur: 7°C
Kuldeindeks: 5°C
Dugpunkt: 7°C
Luftfugtighed: 100%
Barometer: 997 hPa
Skyet: mest skyet
Sigtbarhed: mere end 10 km
Sky detaljer: mest skyet 3800 ft,
mest skyet 4800 ft
EHDL 042355Z AUTO 24005KT 210V280 9999 -UP BKN038 BKN048 07/07 Q0997 BLU
EHEH - Eindhoven Rnlafb, Netherlands
Afstand fra station: SV 48 km
Opdateret: 05-06-2020 01:55
Let Skyet  
Let Skyet  
   Vind: VSV 3.1 m/s
Vind: VSV 3.1 m/s
Temperatur: 7°C
Kuldeindeks: 5°C
Dugpunkt: 6°C
Luftfugtighed: 93%
Barometer: 998 hPa
Skyet: Let Skyet
Sigtbarhed: mere end 10 km
Sky detaljer: Let Skyet 2600 ft
EHEH 042355Z AUTO 24006KT 9999 FEW026 07/06 Q0998 BLU
EHGR - Gilze-Rijen Rnla, Netherlands
Afstand fra station: VSV 70 km
Opdateret: 05-06-2020 01:55
Klart  
Klart  
   Vind: VSV 1.5 m/s
Vind: VSV 1.5 m/s
Temperatur: 8°C
Kuldeindeks: 7°C
Dugpunkt: 6°C
Luftfugtighed: 87%
Barometer: 998 hPa
Skyet: Klart
Sigtbarhed: mere end 10 km
Sky detaljer: Klart
EHGR 042355Z AUTO 25003KT 9999 NCD 08/06 Q0998 BLU
EBBL - Kleine-Brogel(Ba, Belgium
Afstand fra station: SSV 71 km
Opdateret: 05-06-2020 01:55
mest skyet  
mest skyet  
   Vind: VSV 2.6 m/s
Vind: VSV 2.6 m/s
Temperatur: 9°C
Kuldeindeks: 8°C
Dugpunkt: 6°C
Luftfugtighed: 82%
Barometer: 998 hPa
Skyet: mest skyet
Sigtbarhed: mere end 10 km
Sky detaljer: mest skyet 4300 ft
EBBL 042355Z AUTO 24005KT 9999 BKN043/// 09/06 Q0998 BLU

Script udviklet af  Saratoga-weather.org Tilpasset til denne template af  Weerstation Leuven

Du finder også vores vejrinformationer på:

UK Metoffice

European Weather Network

WeatherCloud

Weather Underground

AWEKAS

Citizen Weather Observer Program (CWOP)

HAMweather, WeatherForYou, PWS Weather

Udstyr som vi anvender:

Vejrstation
Davis VP2

Vejrprogram
Meteobridge

Vejrserver
Meteobridge Pro

Davis VP2

Meteobridge

Meteobridge Pro